Commodore Clipper — C6QQ3 — position and weather

sailwx.info

Track history (hours):
 
Tides and Currents Weather Stations Pressure Air Temp Water Temp Dewpoint Dewpoint Depression Visibility Wind Speed Wind Dir Waves Ship Positions

Commodore Clipper

Operator: Condor Marine Services

Last reported at 2019-Jan-24 06:00 UTC. Time now 2019-Jan-24 06:22 UTC.
Position N 50°47' W 001°06'.

Length 130 m; draft 5.4 m.

Type: Ship. MMSI: 308094000.

Date/timePositionNaut miles runAvg speedWind from/ knotsBaromVisibWave heightAir tempDewpointWater temp
2019-Jan-24 06:00N 50°47' W 001°06'612.9
2019-Jan-24 05:31N 50°41' W 001°00'713.1
2019-Jan-24 05:00N 50°36' W 001°05'713.9
2019-Jan-24 04:30N 50°30' W 001°12'1314.0
2019-Jan-24 03:35N 50°20' W 001°24'110.8
2019-Jan-24 03:27N 50°19' W 001°25'4 9.7
2019-Jan-24 03:01N 50°15' W 001°29'5 9.9
2019-Jan-24 02:30N 50°11' W 001°34'510.2
2019-Jan-24 02:00N 50°07' W 001°39'510.7
2019-Jan-24 01:30N 50°03' W 001°44'510.2
2019-Jan-24 01:00N 49°58' W 001°47'510.5
2019-Jan-24 00:30N 49°54' W 001°51'715.0
2019-Jan-24 00:01N 49°48' W 001°58'917.8
2019-Jan-23 23:31N 49°40' W 002°06'917.9
2019-Jan-23 23:00N 49°32' W 002°11'918.9
2019-Jan-23 22:31N 49°23' W 002°16'918.1
2019-Jan-23 22:00N 49°14' W 002°20'6 1.9
2019-Jan-23 18:38N 49°10' W 002°13'218.5
2019-Jan-23 18:30N 49°10' W 002°17'816.0
2019-Jan-23 18:00N 49°17' W 002°23'816.9
2019-Jan-23 17:31N 49°25' W 002°28'3 6.9
2019-Jan-23 17:00N 49°27' W 002°32'0 0.0
2019-Jan-23 16:30N 49°27' W 002°32'0 0.0
2019-Jan-23 16:00N 49°27' W 002°32'3 6.2
2019-Jan-23 15:31N 49°25' W 002°28'816.1
2019-Jan-23 15:00N 49°30' W 002°18'918.9
2019-Jan-23 14:31N 49°36' W 002°07'1121.2
2019-Jan-23 14:01N 49°46' W 001°60'1019.7
2019-Jan-23 13:30N 49°53' W 001°50'918.2
2019-Jan-23 13:01N 50°00' W 001°42'917.3
2019-Jan-23 12:30N 50°08' W 001°34'816.6
2019-Jan-23 12:01N 50°15' W 001°27'816.0
2019-Jan-23 11:29N 50°22' W 001°20'815.6
2019-Jan-23 11:00N 50°28' W 001°15'714.7
2019-Jan-23 10:31N 50°35' W 001°09'714.7
2019-Jan-23 10:01N 50°41' W 001°03'714.4
2019-Jan-23 09:31N 50°48' W 001°07'1 2.6
2019-Jan-23 09:01N 50°49' W 001°06'0 0.0
2019-Jan-23 08:30N 50°49' W 001°06'0 0.0
2019-Jan-23 08:01N 50°49' W 001°06'0 0.0
2019-Jan-23 07:31N 50°49' W 001°06'0 0.0
2019-Jan-23 07:00N 50°49' W 001°06'0 0.0
2019-Jan-23 06:31N 50°49' W 001°06'2 3.6
2019-Jan-23 06:01N 50°47' W 001°06'713.1
2019-Jan-23 05:30N 50°42' W 001°00'612.1
2019-Jan-23 05:00N 50°36' W 001°05'612.8
2019-Jan-23 04:30N 50°31' W 001°11'712.8
2019-Jan-23 03:59N 50°26' W 001°17'712.6
2019-Jan-23 03:25N 50°20' W 001°24'512.4
2019-Jan-23 03:00N 50°16' W 001°29'713.6
2019-Jan-23 02:30N 50°10' W 001°34'713.7
2019-Jan-23 02:00N 50°04' W 001°40'713.9
2019-Jan-23 01:31N 49°58' W 001°46'714.3
2019-Jan-23 01:01N 49°53' W 001°52'714.6
2019-Jan-23 00:30N 49°47' W 001°59'713.1
2019-Jan-23 00:01N 49°41' W 002°04'815.2
2019-Jan-22 23:31N 49°34' W 002°08'816.4
2019-Jan-22 23:00N 49°26' W 002°12'816.5
2019-Jan-22 22:31N 49°19' W 002°19'815.2
2019-Jan-22 21:58N 49°11' W 002°18'3 1.1
2019-Jan-22 18:45N 49°10' W 002°13'416.2
2019-Jan-22 18:30N 49°11' W 002°19'917.2
2019-Jan-22 18:01N 49°19' W 002°24'816.8
2019-Jan-22 17:31N 49°27' W 002°30'1 2.6
2019-Jan-22 17:00N 49°27' W 002°32'0 0.0
2019-Jan-22 16:30N 49°27' W 002°32'0 0.1
2019-Jan-22 16:01N 49°27' W 002°32'4 8.8
2019-Jan-22 15:31N 49°27' W 002°25'816.1
2019-Jan-22 15:01N 49°31' W 002°14'917.3
2019-Jan-22 14:31N 49°36' W 002°04'1020.7
2019-Jan-22 14:01N 49°46' W 001°59'918.8
2019-Jan-22 13:31N 49°54' W 001°51'918.1
2019-Jan-22 13:01N 50°02' W 001°43'917.2
2019-Jan-22 12:30N 50°09' W 001°37'916.8
2019-Jan-22 11:58N 50°16' W 001°29'1016.0
2019-Jan-22 11:20N 50°25' W 001°19'515.5
2019-Jan-22 11:00N 50°29' W 001°15'815.0
2019-Jan-22 10:30N 50°35' W 001°09'714.9
2019-Jan-22 10:00N 50°42' W 001°02'713.5
2019-Jan-22 09:30N 50°48' W 001°07'1 2.4
2019-Jan-22 09:00N 50°49' W 001°06'0 0.0
2019-Jan-22 08:30N 50°49' W 001°06'0 0.0
2019-Jan-22 08:00N 50°49' W 001°06'0 0.0
2019-Jan-22 07:30N 50°49' W 001°06'0 0.0
2019-Jan-22 07:00N 50°49' W 001°06'0 0.0
2019-Jan-22 06:30N 50°49' W 001°06'2 3.3
2019-Jan-22 06:01N 50°47' W 001°06'713.2
2019-Jan-22 05:31N 50°42' W 001°00'611.4
2019-Jan-22 05:01N 50°36' W 001°04'611.4
2019-Jan-22 04:30N 50°32' W 001°10'611.0
2019-Jan-22 04:00N 50°28' W 001°16'711.8
2019-Jan-22 03:25N 50°23' W 001°23'1011.4
2019-Jan-22 02:31N 50°16' W 001°35'714.0
2019-Jan-22 02:00N 50°09' W 001°40'714.0
2019-Jan-22 01:30N 50°04' W 001°46'714.5
2019-Jan-22 01:01N 49°57' W 001°52'815.4
2019-Jan-22 00:31N 49°50' W 001°56'713.5
2019-Jan-22 00:01N 49°44' W 002°01'713.3
2019-Jan-21 23:31N 49°39' W 002°06'816.2
2019-Jan-21 23:01N 49°31' W 002°11'917.4
2019-Jan-21 22:31N 49°23' W 002°16'917.0
2019-Jan-21 22:00N 49°15' W 002°21'7 2.0
2019-Jan-21 18:36N 49°10' W 002°15'217.0
2019-Jan-21 18:30N 49°10' W 002°17'815.6
2019-Jan-21 18:01N 49°17' W 002°22'816.1
2019-Jan-21 17:31N 49°24' W 002°28'4 7.4
2019-Jan-21 17:00N 49°27' W 002°32'0 0.0
2019-Jan-21 16:31N 49°27' W 002°32'0 0.0
2019-Jan-21 16:01N 49°27' W 002°32'3 5.7
2019-Jan-21 15:31N 49°25' W 002°28'816.6
2019-Jan-21 15:01N 49°30' W 002°18'814.0
2019-Jan-21 14:27N 49°35' W 002°08'614.2
2019-Jan-21 14:00N 49°40' W 002°02'918.1
2019-Jan-21 13:31N 49°49' W 001°59'1019.1
2019-Jan-21 13:01N 49°56' W 001°50'918.4
2019-Jan-21 12:31N 50°05' W 001°44'918.2
2019-Jan-21 12:00N 50°12' W 001°36'1017.8
2019-Jan-21 11:26N 50°20' W 001°26'817.3
2019-Jan-21 10:59N 50°26' W 001°19'816.9
2019-Jan-21 10:30N 50°33' W 001°12'816.4
2019-Jan-21 10:00N 50°40' W 001°04'713.8
2019-Jan-21 09:30N 50°47' W 001°06'2 4.4
2019-Jan-21 09:00N 50°49' W 001°06'0 0.0
2019-Jan-21 08:30N 50°49' W 001°06'0 0.0
2019-Jan-21 08:00N 50°49' W 001°06'0 0.0
2019-Jan-21 07:30N 50°49' W 001°06'0 0.0
2019-Jan-21 07:00N 50°49' W 001°06'0 0.0
2019-Jan-21 06:30N 50°49' W 001°06'0 0.0
2019-Jan-21 06:00N 50°49' W 001°06'0 0.0
2019-Jan-21 05:30N 50°49' W 001°06'0 0.0
2019-Jan-21 05:00N 50°49' W 001°06'0 0.0
2019-Jan-21 04:30N 50°49' W 001°06'0 0.0
2019-Jan-21 04:00N 50°49' W 001°06'0 0.0
2019-Jan-21 03:30N 50°49' W 001°06'0 0.0
2019-Jan-21 03:00N 50°49' W 001°06'0 0.0
2019-Jan-21 02:30N 50°49' W 001°06'0 0.0
2019-Jan-21 02:00N 50°49' W 001°06'0 0.0
2019-Jan-21 01:30N 50°49' W 001°06'0 0.0
2019-Jan-21 01:00N 50°49' W 001°06'0 0.0
2019-Jan-21 00:30N 50°49' W 001°06'0 0.0
2019-Jan-21 00:00N 50°49' W 001°06'0 0.0
2019-Jan-20 23:30N 50°49' W 001°06'0 0.0
2019-Jan-20 23:00N 50°49' W 001°06'0 0.0
2019-Jan-20 22:30N 50°49' W 001°06'0 0.0
2019-Jan-20 22:00N 50°49' W 001°06'0 0.0
2019-Jan-20 21:30N 50°49' W 001°06'0 0.0
2019-Jan-20 21:00N 50°49' W 001°06'0 0.0
2019-Jan-20 20:30N 50°49' W 001°06'0 0.0
2019-Jan-20 20:00N 50°49' W 001°06'0 0.0
2019-Jan-20 19:30N 50°49' W 001°06'0 0.0
2019-Jan-20 19:00N 50°49' W 001°06'0 0.0
2019-Jan-20 18:30N 50°49' W 001°06'0 0.0
2019-Jan-20 18:00N 50°49' W 001°06'0 0.0
2019-Jan-20 17:30N 50°49' W 001°06'0 0.0
2019-Jan-20 17:00N 50°49' W 001°06'0 0.0
2019-Jan-20 16:30N 50°49' W 001°06'0 0.0
2019-Jan-20 16:00N 50°49' W 001°06'0 0.0
2019-Jan-20 15:30N 50°49' W 001°06'0 0.0
2019-Jan-20 15:00N 50°49' W 001°06'0 0.0
2019-Jan-20 14:30N 50°49' W 001°06'0 0.0
2019-Jan-20 14:00N 50°49' W 001°06'0 0.0
2019-Jan-20 13:30N 50°49' W 001°06'0 0.0
2019-Jan-20 13:00N 50°49' W 001°06'0 0.0
2019-Jan-20 12:30N 50°49' W 001°06'0 0.0
2019-Jan-20 12:00N 50°49' W 001°06'0 0.0
2019-Jan-20 11:30N 50°49' W 001°06'0 0.0
2019-Jan-20 11:00N 50°49' W 001°06'0 0.0
2019-Jan-20 10:30N 50°49' W 001°06'0 0.0
2019-Jan-20 10:00N 50°49' W 001°06'0 0.0
2019-Jan-20 09:30N 50°49' W 001°06'0 0.0
2019-Jan-20 09:00N 50°49' W 001°06'0 0.0
2019-Jan-20 08:30N 50°49' W 001°06'0 0.0
2019-Jan-20 08:00N 50°49' W 001°06'0 0.0
2019-Jan-20 07:30N 50°49' W 001°06'0 0.0
2019-Jan-20 07:00N 50°49' W 001°06'0 0.0
2019-Jan-20 06:30N 50°49' W 001°06'2 3.2
2019-Jan-20 06:00N 50°47' W 001°06'612.2
2019-Jan-20 05:31N 50°42' W 001°01'714.4
2019-Jan-20 05:00N 50°36' W 001°07'814.8
2019-Jan-20 04:30N 50°30' W 001°14'714.1
2019-Jan-20 03:59N 50°25' W 001°22'714.0
2019-Jan-20 03:31N 50°20' W 001°29'714.0
2019-Jan-20 03:00N 50°14' W 001°34'714.0
2019-Jan-20 02:31N 50°08' W 001°40'914.4
2019-Jan-20 01:54N 50°00' W 001°47'614.0
2019-Jan-20 01:30N 49°56' W 001°53'713.8
2019-Jan-20 01:01N 49°50' W 001°59'713.0
2019-Jan-20 00:31N 49°44' W 002°03'611.5
2019-Jan-20 00:01N 49°39' W 002°06'713.6
2019-Jan-19 23:31N 49°33' W 002°11'714.9
2019-Jan-19 23:01N 49°29' W 002°21'612.7
2019-Jan-19 22:30N 49°26' W 002°30'2 3.9
2019-Jan-19 22:01N 49°27' W 002°32'0 0.0
2019-Jan-19 21:30N 49°27' W 002°32'0 0.0
2019-Jan-19 21:01N 49°27' W 002°32'5 9.4
2019-Jan-19 20:31N 49°23' W 002°28'713.9
2019-Jan-19 20:00N 49°17' W 002°23'815.6
2019-Jan-19 19:30N 49°10' W 002°17'7 2.6
2019-Jan-19 16:53N 49°11' W 002°07'510.8
2019-Jan-19 16:28N 49°10' W 002°14'613.5
2019-Jan-19 16:00N 49°15' W 002°19'612.3
2019-Jan-19 15:31N 49°21' W 002°18'510.9
2019-Jan-19 15:00N 49°26' W 002°14'612.1
2019-Jan-19 14:31N 49°31' W 002°09'713.1
2019-Jan-19 14:00N 49°37' W 002°05'918.3
2019-Jan-19 13:31N 49°46' W 002°00'918.1
2019-Jan-19 13:00N 49°53' W 001°53'918.3
2019-Jan-19 12:30N 50°01' W 001°45'917.4
2019-Jan-19 12:01N 50°09' W 001°40'2317.8
2019-Jan-19 10:45N 50°27' W 001°19'417.6
2019-Jan-19 10:31N 50°30' W 001°15'917.9
2019-Jan-19 10:01N 50°37' W 001°07'714.6
2019-Jan-19 09:31N 50°45' W 001°05'4 8.3
2019-Jan-19 09:00N 50°49' W 001°06'0 0.0
2019-Jan-19 08:30N 50°49' W 001°06'0 0.0
2019-Jan-19 08:00N 50°49' W 001°06'0 0.0
2019-Jan-19 07:30N 50°49' W 001°06'0 0.0
2019-Jan-19 07:00N 50°49' W 001°06'0 0.0
2019-Jan-19 06:30N 50°49' W 001°06'1 2.9
2019-Jan-19 06:01N 50°47' W 001°07'713.4
2019-Jan-19 05:31N 50°42' W 001°01'816.7
2019-Jan-19 05:01N 50°35' W 001°09'816.7
2019-Jan-19 04:30N 50°28' W 001°15'3116.6
2019-Jan-19 02:37N 50°05' W 001°49'216.7
2019-Jan-19 02:30N 50°04' W 001°50'816.2
2019-Jan-19 02:00N 49°57' W 001°57'816.4
2019-Jan-19 01:31N 49°49' W 002°01'815.1
2019-Jan-19 01:01N 49°42' W 002°04'714.1
2019-Jan-19 00:31N 49°35' W 002°09'815.4
2019-Jan-19 00:01N 49°30' W 002°18'815.0
2019-Jan-18 23:31N 49°26' W 002°27'3 6.8
2019-Jan-18 23:00N 49°27' W 002°32'0 0.0
2019-Jan-18 22:30N 49°27' W 002°32'0 0.0
2019-Jan-18 22:00N 49°27' W 002°32'0 0.0
2019-Jan-18 21:30N 49°27' W 002°32'2 4.4
2019-Jan-18 21:01N 49°26' W 002°29'917.2
2019-Jan-18 20:31N 49°18' W 002°24'917.6
2019-Jan-18 20:00N 49°10' W 002°17'2 0.7
2019-Jan-18 16:49N 49°10' W 002°13'413.1
2019-Jan-18 16:31N 49°12' W 002°19'713.5
2019-Jan-18 16:01N 49°19' W 002°19'714.0
2019-Jan-18 15:30N 49°25' W 002°15'714.3
2019-Jan-18 15:00N 49°32' W 002°10'714.1
2019-Jan-18 14:30N 49°38' W 002°06'814.2
2019-Jan-18 13:58N 49°45' W 002°01'715.7
2019-Jan-18 13:30N 49°51' W 001°55'816.8
2019-Jan-18 13:00N 49°58' W 001°47'816.8
2019-Jan-18 12:30N 50°06' W 001°43'917.0
2019-Jan-18 11:57N 50°14' W 001°35'1717.2
2019-Jan-18 10:58N 50°27' W 001°19'817.6
2019-Jan-18 10:31N 50°34' W 001°11'917.6
2019-Jan-18 10:01N 50°41' W 001°03'713.9
2019-Jan-18 09:30N 50°47' W 001°07'2 3.0
2019-Jan-18 09:00N 50°49' W 001°06'0 0.0
2019-Jan-18 08:30N 50°49' W 001°06'0 0.0
2019-Jan-18 08:00N 50°49' W 001°06'0 0.0
2019-Jan-18 07:30N 50°49' W 001°06'0 0.0
2019-Jan-18 07:00N 50°49' W 001°06'0 0.0
2019-Jan-18 06:30N 50°49' W 001°06'1 2.3
2019-Jan-18 06:00N 50°48' W 001°07'612.9
2019-Jan-18 05:30N 50°42' W 001°02'815.8
2019-Jan-18 05:00N 50°36' W 001°09'612.6
2019-Jan-18 04:30N 50°30' W 001°15'3213.2
2019-Jan-18 02:03N 50°05' W 001°45'116.7
2019-Jan-18 02:00N 50°04' W 001°46'816.6
2019-Jan-18 01:31N 49°57' W 001°53'816.4
2019-Jan-18 01:01N 49°50' W 001°59'815.7
2019-Jan-18 00:31N 49°42' W 002°04'815.1
2019-Jan-18 00:01N 49°36' W 002°09'815.6
2019-Jan-17 23:30N 49°30' W 002°17'815.3
2019-Jan-17 23:00N 49°26' W 002°27'3 6.8
2019-Jan-17 22:30N 49°27' W 002°32'0 0.0
2019-Jan-17 22:00N 49°27' W 002°32'0 0.0
2019-Jan-17 21:30N 49°27' W 002°32'0 0.0
2019-Jan-17 21:00N 49°27' W 002°32'4 7.2
2019-Jan-17 20:30N 49°24' W 002°28'815.9
2019-Jan-17 20:01N 49°17' W 002°23'816.1
2019-Jan-17 19:30N 49°10' W 002°17'7 2.5
2019-Jan-17 16:55N 49°11' W 002°07'410.2
2019-Jan-17 16:30N 49°10' W 002°13'713.6
2019-Jan-17 16:00N 49°14' W 002°21'715.0
2019-Jan-17 15:30N 49°21' W 002°18'815.4
2019-Jan-17 15:01N 49°28' W 002°13'815.4
2019-Jan-17 14:30N 49°35' W 002°09'815.1
2019-Jan-17 14:00N 49°42' W 002°04'815.3
2019-Jan-17 13:29N 49°49' W 001°58'816.6
2019-Jan-17 13:00N 49°56' W 001°52'917.3
2019-Jan-17 12:30N 50°04' W 001°46'917.6
2019-Jan-17 12:00N 50°11' W 001°38'2017.8
2019-Jan-17 10:54N 50°27' W 001°19'718.2
2019-Jan-17 10:30N 50°33' W 001°12'918.7
2019-Jan-17 10:01N 50°40' W 001°04'713.9
2019-Jan-17 09:31N 50°47' W 001°06'2 3.7
2019-Jan-17 09:01N 50°49' W 001°06'0 0.0
2019-Jan-17 08:31N 50°49' W 001°06'0 0.0
2019-Jan-17 08:01N 50°49' W 001°06'0 0.0
2019-Jan-17 07:31N 50°49' W 001°06'0 0.0
2019-Jan-17 07:01N 50°49' W 001°06'0 0.0
2019-Jan-17 06:30N 50°49' W 001°06'1 2.6
2019-Jan-17 06:01N 50°48' W 001°07'713.5
2019-Jan-17 05:31N 50°42' W 001°02'815.6
2019-Jan-17 05:01N 50°35' W 001°09'814.7
2019-Jan-17 04:30N 50°29' W 001°16'3015.0
2019-Jan-17 02:30N 50°05' W 001°43'917.4
2019-Jan-17 02:01N 49°58' W 001°50'917.6
2019-Jan-17 01:30N 49°50' W 001°58'917.9
2019-Jan-17 01:01N 49°42' W 002°04'816.8
2019-Jan-17 00:31N 49°34' W 002°09'917.1
2019-Jan-17 00:00N 49°27' W 002°14'816.5
2019-Jan-16 23:31N 49°19' W 002°20'714.6
2019-Jan-16 23:01N 49°12' W 002°19'4 1.2
2019-Jan-16 19:47N 49°10' W 002°14'415.7
2019-Jan-16 19:31N 49°12' W 002°19'917.2
2019-Jan-16 19:01N 49°20' W 002°25'816.7
2019-Jan-16 18:30N 49°27' W 002°31'0 1.0
2019-Jan-16 18:00N 49°27' W 002°32'0 0.0
2019-Jan-16 17:30N 49°27' W 002°32'0 0.2
2019-Jan-16 17:00N 49°27' W 002°32'5 9.7
2019-Jan-16 16:30N 49°27' W 002°24'816.2
2019-Jan-16 16:01N 49°32' W 002°14'714.5
2019-Jan-16 15:31N 49°38' W 002°07'612.9
2019-Jan-16 15:00N 49°44' W 002°04'612.9
2019-Jan-16 14:30N 49°50' W 001°59'713.4
2019-Jan-16 14:00N 49°55' W 001°54'713.7
2019-Jan-16 13:31N 50°01' W 001°48'714.1
2019-Jan-16 13:01N 50°07' W 001°42'2014.7
2019-Jan-16 11:40N 50°23' W 001°24'515.2
2019-Jan-16 11:19N 50°27' W 001°19'515.4
2019-Jan-16 11:01N 50°31' W 001°14'816.0
2019-Jan-16 10:30N 50°37' W 001°07'713.6
2019-Jan-16 10:00N 50°44' W 001°04'510.1
2019-Jan-16 09:30N 50°49' W 001°06'0 0.7
2019-Jan-16 09:00N 50°49' W 001°06'0 0.0
2019-Jan-16 08:30N 50°49' W 001°06'0 0.0
2019-Jan-16 08:00N 50°49' W 001°06'0 0.0
2019-Jan-16 07:30N 50°49' W 001°06'0 0.0
2019-Jan-16 07:00N 50°49' W 001°06'0 0.0
2019-Jan-16 06:30N 50°49' W 001°06'1 2.4
2019-Jan-16 06:01N 50°48' W 001°07'714.1
2019-Jan-16 05:31N 50°41' W 001°03'816.9
2019-Jan-16 05:00N 50°34' W 001°10'815.1
2019-Jan-16 04:30N 50°28' W 001°18'2713.4
2019-Jan-16 02:30N 50°05' W 001°37'714.1
2019-Jan-16 02:00N 49°59' W 001°44'714.2
2019-Jan-16 01:31N 49°54' W 001°51'714.2
2019-Jan-16 01:00N 49°48' W 001°58'815.6
2019-Jan-16 00:31N 49°42' W 002°04'918.5
2019-Jan-16 00:01N 49°33' W 002°10'917.6
2019-Jan-15 23:30N 49°25' W 002°15'917.1
2019-Jan-15 23:00N 49°17' W 002°20'714.4
2019-Jan-15 22:30N 49°10' W 002°17'6 2.2
2019-Jan-15 19:46N 49°10' W 002°07'414.6
2019-Jan-15 19:29N 49°10' W 002°14'815.7
2019-Jan-15 19:01N 49°15' W 002°22'816.9
2019-Jan-15 18:31N 49°23' W 002°27'510.7
2019-Jan-15 18:00N 49°27' W 002°32'0 0.0
2019-Jan-15 17:30N 49°27' W 002°32'0 0.0
2019-Jan-15 17:00N 49°27' W 002°32'1 2.2
2019-Jan-15 16:30N 49°27' W 002°30'612.1
2019-Jan-15 16:00N 49°29' W 002°21'816.0
2019-Jan-15 15:31N 49°34' W 002°11'815.2
2019-Jan-15 14:58N 49°41' W 002°05'613.8
2019-Jan-15 14:30N 49°47' W 002°01'714.2
2019-Jan-15 14:01N 49°53' W 001°55'714.9
2019-Jan-15 13:30N 49°60' W 001°51'713.7
2019-Jan-15 13:01N 50°04' W 001°43'815.1
2019-Jan-15 12:31N 50°10' W 001°36'1115.7
2019-Jan-15 11:47N 50°19' W 001°26'716.0
2019-Jan-15 11:21N 50°25' W 001°20'616.4
2019-Jan-15 11:00N 50°30' W 001°14'816.3
2019-Jan-15 10:30N 50°37' W 001°07'714.8
2019-Jan-15 10:01N 50°44' W 001°04'510.4
2019-Jan-15 09:31N 50°49' W 001°07'1 1.1
2019-Jan-15 09:00N 50°49' W 001°06'0 0.0
2019-Jan-15 08:30N 50°49' W 001°06'0 0.0
2019-Jan-15 08:00N 50°49' W 001°06'0 0.0
2019-Jan-15 07:30N 50°49' W 001°06'0 0.0
2019-Jan-15 07:00N 50°49' W 001°06'0 0.0
2019-Jan-15 06:30N 50°49' W 001°06'1 3.0
2019-Jan-15 06:00N 50°47' W 001°07'713.4
2019-Jan-15 05:31N 50°41' W 001°03'815.6
2019-Jan-15 05:00N 50°35' W 001°10'714.0
2019-Jan-15 04:30N 50°29' W 001°16'1012.2
2019-Jan-15 03:40N 50°21' W 001°25'211.2
2019-Jan-15 03:31N 50°19' W 001°26'611.3
2019-Jan-15 03:00N 50°14' W 001°31'611.2
2019-Jan-15 02:30N 50°09' W 001°35'611.2
2019-Jan-15 02:00N 50°04' W 001°39'611.8
2019-Jan-15 01:30N 49°59' W 001°43'713.5
2019-Jan-15 01:00N 49°54' W 001°51'612.6
2019-Jan-15 00:30N 49°49' W 001°56'714.3
2019-Jan-15 00:00N 49°43' W 002°03'714.1
2019-Jan-14 23:31N 49°37' W 002°07'815.6
2019-Jan-14 23:01N 49°30' W 002°12'917.2
2019-Jan-14 22:31N 49°22' W 002°17'816.2
2019-Jan-14 22:01N 49°14' W 002°21'713.9
2019-Jan-14 21:30N 49°10' W 002°12'4 6.5
2019-Jan-14 20:57N 49°11' W 002°07'0 0.0
2019-Jan-14 19:38N 49°11' W 002°07'0 0.2
2019-Jan-14 19:09N 49°11' W 002°07'0 2.9
2019-Jan-14 19:00N 49°10' W 002°07'815.1
2019-Jan-14 18:30N 49°11' W 002°19'917.9
2019-Jan-14 18:01N 49°19' W 002°25'917.3
2019-Jan-14 17:31N 49°27' W 002°30'1 2.1
2019-Jan-14 17:01N 49°27' W 002°32'0 0.0
2019-Jan-14 16:30N 49°27' W 002°32'0 0.5
2019-Jan-14 16:00N 49°27' W 002°31'510.8
2019-Jan-14 15:30N 49°28' W 002°23'917.0
2019-Jan-14 15:00N 49°33' W 002°13'816.1
2019-Jan-14 14:30N 49°40' W 002°06'714.9
2019-Jan-14 14:01N 49°46' W 002°00'714.7
2019-Jan-14 13:30N 49°52' W 001°54'815.3
2019-Jan-14 13:01N 49°59' W 001°48'815.3
2019-Jan-14 12:31N 50°05' W 001°40'815.8
2019-Jan-14 12:00N 50°11' W 001°33'1616.1
2019-Jan-14 11:01N 50°25' W 001°20'116.2
2019-Jan-14 10:59N 50°25' W 001°19'816.4
2019-Jan-14 10:30N 50°32' W 001°13'816.4
2019-Jan-14 10:00N 50°39' W 001°06'714.2
2019-Jan-14 09:30N 50°46' W 001°05'3 6.1
2019-Jan-14 09:00N 50°49' W 001°06'0 0.0
2019-Jan-14 08:30N 50°49' W 001°06'0 0.0
2019-Jan-14 08:00N 50°49' W 001°06'0 0.0
2019-Jan-14 07:31N 50°49' W 001°06'0 0.0
2019-Jan-14 07:00N 50°49' W 001°06'0 0.0
2019-Jan-14 06:30N 50°49' W 001°06'  
Track history (hours):
 
Tides and Currents Weather Stations Pressure Air Temp Water Temp Dewpoint Dewpoint Depression Visibility Wind Speed Wind Dir Waves Ship Positions

Commodore Clipper

Operator: Condor Marine Services

Last reported at 2019-Jan-24 06:00 UTC. Time now 2019-Jan-24 06:22 UTC.
Position N 50°47' W 001°06'.

Length 130 m; draft 5.4 m.

Type: Ship. MMSI: 308094000.

Date/timePositionNaut miles runAvg speedWind from/ knotsBaromVisibWave heightAir tempDewpointWater temp
2019-Jan-24 06:00N 50°47' W 001°06'612.9
2019-Jan-24 05:31N 50°41' W 001°00'713.1
2019-Jan-24 05:00N 50°36' W 001°05'713.9
2019-Jan-24 04:30N 50°30' W 001°12'1314.0
2019-Jan-24 03:35N 50°20' W 001°24'110.8
2019-Jan-24 03:27N 50°19' W 001°25'4 9.7
2019-Jan-24 03:01N 50°15' W 001°29'5 9.9
2019-Jan-24 02:30N 50°11' W 001°34'510.2
2019-Jan-24 02:00N 50°07' W 001°39'510.7
2019-Jan-24 01:30N 50°03' W 001°44'510.2
2019-Jan-24 01:00N 49°58' W 001°47'510.5
2019-Jan-24 00:30N 49°54' W 001°51'715.0
2019-Jan-24 00:01N 49°48' W 001°58'917.8
2019-Jan-23 23:31N 49°40' W 002°06'917.9
2019-Jan-23 23:00N 49°32' W 002°11'918.9
2019-Jan-23 22:31N 49°23' W 002°16'918.1
2019-Jan-23 22:00N 49°14' W 002°20'6 1.9
2019-Jan-23 18:38N 49°10' W 002°13'218.5
2019-Jan-23 18:30N 49°10' W 002°17'816.0
2019-Jan-23 18:00N 49°17' W 002°23'816.9
2019-Jan-23 17:31N 49°25' W 002°28'3 6.9
2019-Jan-23 17:00N 49°27' W 002°32'0 0.0
2019-Jan-23 16:30N 49°27' W 002°32'0 0.0
2019-Jan-23 16:00N 49°27' W 002°32'3 6.2
2019-Jan-23 15:31N 49°25' W 002°28'816.1
2019-Jan-23 15:00N 49°30' W 002°18'918.9
2019-Jan-23 14:31N 49°36' W 002°07'1121.2
2019-Jan-23 14:01N 49°46' W 001°60'1019.7
2019-Jan-23 13:30N 49°53' W 001°50'918.2
2019-Jan-23 13:01N 50°00' W 001°42'917.3
2019-Jan-23 12:30N 50°08' W 001°34'816.6
2019-Jan-23 12:01N 50°15' W 001°27'816.0
2019-Jan-23 11:29N 50°22' W 001°20'815.6
2019-Jan-23 11:00N 50°28' W 001°15'714.7
2019-Jan-23 10:31N 50°35' W 001°09'714.7
2019-Jan-23 10:01N 50°41' W 001°03'714.4
2019-Jan-23 09:31N 50°48' W 001°07'1 2.6
2019-Jan-23 09:01N 50°49' W 001°06'0 0.0
2019-Jan-23 08:30N 50°49' W 001°06'0 0.0
2019-Jan-23 08:01N 50°49' W 001°06'0 0.0
2019-Jan-23 07:31N 50°49' W 001°06'0 0.0
2019-Jan-23 07:00N 50°49' W 001°06'0 0.0
2019-Jan-23 06:31N 50°49' W 001°06'2 3.6
2019-Jan-23 06:01N 50°47' W 001°06'713.1
2019-Jan-23 05:30N 50°42' W 001°00'612.1
2019-Jan-23 05:00N 50°36' W 001°05'612.8
2019-Jan-23 04:30N 50°31' W 001°11'712.8
2019-Jan-23 03:59N 50°26' W 001°17'712.6
2019-Jan-23 03:25N 50°20' W 001°24'512.4
2019-Jan-23 03:00N 50°16' W 001°29'713.6
2019-Jan-23 02:30N 50°10' W 001°34'713.7
2019-Jan-23 02:00N 50°04' W 001°40'713.9
2019-Jan-23 01:31N 49°58' W 001°46'714.3
2019-Jan-23 01:01N 49°53' W 001°52'714.6
2019-Jan-23 00:30N 49°47' W 001°59'713.1
2019-Jan-23 00:01N 49°41' W 002°04'815.2
2019-Jan-22 23:31N 49°34' W 002°08'816.4
2019-Jan-22 23:00N 49°26' W 002°12'816.5
2019-Jan-22 22:31N 49°19' W 002°19'815.2
2019-Jan-22 21:58N 49°11' W 002°18'3 1.1
2019-Jan-22 18:45N 49°10' W 002°13'416.2
2019-Jan-22 18:30N 49°11' W 002°19'917.2
2019-Jan-22 18:01N 49°19' W 002°24'816.8
2019-Jan-22 17:31N 49°27' W 002°30'1 2.6
2019-Jan-22 17:00N 49°27' W 002°32'0 0.0
2019-Jan-22 16:30N 49°27' W 002°32'0 0.1
2019-Jan-22 16:01N 49°27' W 002°32'4 8.8
2019-Jan-22 15:31N 49°27' W 002°25'816.1
2019-Jan-22 15:01N 49°31' W 002°14'917.3
2019-Jan-22 14:31N 49°36' W 002°04'1020.7
2019-Jan-22 14:01N 49°46' W 001°59'918.8
2019-Jan-22 13:31N 49°54' W 001°51'918.1
2019-Jan-22 13:01N 50°02' W 001°43'917.2
2019-Jan-22 12:30N 50°09' W 001°37'916.8
2019-Jan-22 11:58N 50°16' W 001°29'1016.0
2019-Jan-22 11:20N 50°25' W 001°19'515.5
2019-Jan-22 11:00N 50°29' W 001°15'815.0
2019-Jan-22 10:30N 50°35' W 001°09'714.9
2019-Jan-22 10:00N 50°42' W 001°02'713.5
2019-Jan-22 09:30N 50°48' W 001°07'1 2.4
2019-Jan-22 09:00N 50°49' W 001°06'0 0.0
2019-Jan-22 08:30N 50°49' W 001°06'0 0.0
2019-Jan-22 08:00N 50°49' W 001°06'0 0.0
2019-Jan-22 07:30N 50°49' W 001°06'0 0.0
2019-Jan-22 07:00N 50°49' W 001°06'0 0.0
2019-Jan-22 06:30N 50°49' W 001°06'2 3.3
2019-Jan-22 06:01N 50°47' W 001°06'713.2
2019-Jan-22 05:31N 50°42' W 001°00'611.4
2019-Jan-22 05:01N 50°36' W 001°04'611.4
2019-Jan-22 04:30N 50°32' W 001°10'611.0
2019-Jan-22 04:00N 50°28' W 001°16'711.8
2019-Jan-22 03:25N 50°23' W 001°23'1011.4
2019-Jan-22 02:31N 50°16' W 001°35'714.0
2019-Jan-22 02:00N 50°09' W 001°40'714.0
2019-Jan-22 01:30N 50°04' W 001°46'714.5
2019-Jan-22 01:01N 49°57' W 001°52'815.4
2019-Jan-22 00:31N 49°50' W 001°56'713.5
2019-Jan-22 00:01N 49°44' W 002°01'713.3
2019-Jan-21 23:31N 49°39' W 002°06'816.2
2019-Jan-21 23:01N 49°31' W 002°11'917.4
2019-Jan-21 22:31N 49°23' W 002°16'917.0
2019-Jan-21 22:00N 49°15' W 002°21'7 2.0
2019-Jan-21 18:36N 49°10' W 002°15'217.0
2019-Jan-21 18:30N 49°10' W 002°17'815.6
2019-Jan-21 18:01N 49°17' W 002°22'816.1
2019-Jan-21 17:31N 49°24' W 002°28'4 7.4
2019-Jan-21 17:00N 49°27' W 002°32'0 0.0
2019-Jan-21 16:31N 49°27' W 002°32'0 0.0
2019-Jan-21 16:01N 49°27' W 002°32'3 5.7
2019-Jan-21 15:31N 49°25' W 002°28'816.6
2019-Jan-21 15:01N 49°30' W 002°18'814.0
2019-Jan-21 14:27N 49°35' W 002°08'614.2
2019-Jan-21 14:00N 49°40' W 002°02'918.1
2019-Jan-21 13:31N 49°49' W 001°59'1019.1
2019-Jan-21 13:01N 49°56' W 001°50'918.4
2019-Jan-21 12:31N 50°05' W 001°44'918.2
2019-Jan-21 12:00N 50°12' W 001°36'1017.8
2019-Jan-21 11:26N 50°20' W 001°26'817.3
2019-Jan-21 10:59N 50°26' W 001°19'816.9
2019-Jan-21 10:30N 50°33' W 001°12'816.4
2019-Jan-21 10:00N 50°40' W 001°04'713.8
2019-Jan-21 09:30N 50°47' W 001°06'2 4.4
2019-Jan-21 09:00N 50°49' W 001°06'0 0.0
2019-Jan-21 08:30N 50°49' W 001°06'0 0.0
2019-Jan-21 08:00N 50°49' W 001°06'0 0.0
2019-Jan-21 07:30N 50°49' W 001°06'0 0.0
2019-Jan-21 07:00N 50°49' W 001°06'0 0.0
2019-Jan-21 06:30N 50°49' W 001°06'0 0.0
2019-Jan-21 06:00N 50°49' W 001°06'0 0.0
2019-Jan-21 05:30N 50°49' W 001°06'0 0.0
2019-Jan-21 05:00N 50°49' W 001°06'0 0.0
2019-Jan-21 04:30N 50°49' W 001°06'0 0.0
2019-Jan-21 04:00N 50°49' W 001°06'0 0.0
2019-Jan-21 03:30N 50°49' W 001°06'0 0.0
2019-Jan-21 03:00N 50°49' W 001°06'0 0.0
2019-Jan-21 02:30N 50°49' W 001°06'0 0.0
2019-Jan-21 02:00N 50°49' W 001°06'0 0.0
2019-Jan-21 01:30N 50°49' W 001°06'0 0.0
2019-Jan-21 01:00N 50°49' W 001°06'0 0.0
2019-Jan-21 00:30N 50°49' W 001°06'0 0.0
2019-Jan-21 00:00N 50°49' W 001°06'0 0.0
2019-Jan-20 23:30N 50°49' W 001°06'0 0.0
2019-Jan-20 23:00N 50°49' W 001°06'0 0.0
2019-Jan-20 22:30N 50°49' W 001°06'0 0.0
2019-Jan-20 22:00N 50°49' W 001°06'0 0.0
2019-Jan-20 21:30N 50°49' W 001°06'0 0.0
2019-Jan-20 21:00N 50°49' W 001°06'0 0.0
2019-Jan-20 20:30N 50°49' W 001°06'0 0.0
2019-Jan-20 20:00N 50°49' W 001°06'0 0.0
2019-Jan-20 19:30N 50°49' W 001°06'0 0.0
2019-Jan-20 19:00N 50°49' W 001°06'0 0.0
2019-Jan-20 18:30N 50°49' W 001°06'0 0.0
2019-Jan-20 18:00N 50°49' W 001°06'0 0.0
2019-Jan-20 17:30N 50°49' W 001°06'0 0.0
2019-Jan-20 17:00N 50°49' W 001°06'0 0.0
2019-Jan-20 16:30N 50°49' W 001°06'0 0.0
2019-Jan-20 16:00N 50°49' W 001°06'0 0.0
2019-Jan-20 15:30N 50°49' W 001°06'0 0.0
2019-Jan-20 15:00N 50°49' W 001°06'0 0.0
2019-Jan-20 14:30N 50°49' W 001°06'0 0.0
2019-Jan-20 14:00N 50°49' W 001°06'0 0.0
2019-Jan-20 13:30N 50°49' W 001°06'0 0.0
2019-Jan-20 13:00N 50°49' W 001°06'0 0.0
2019-Jan-20 12:30N 50°49' W 001°06'0 0.0
2019-Jan-20 12:00N 50°49' W 001°06'0 0.0
2019-Jan-20 11:30N 50°49' W 001°06'0 0.0
2019-Jan-20 11:00N 50°49' W 001°06'0 0.0
2019-Jan-20 10:30N 50°49' W 001°06'0 0.0
2019-Jan-20 10:00N 50°49' W 001°06'0 0.0
2019-Jan-20 09:30N 50°49' W 001°06'0 0.0
2019-Jan-20 09:00N 50°49' W 001°06'0 0.0
2019-Jan-20 08:30N 50°49' W 001°06'0 0.0
2019-Jan-20 08:00N 50°49' W 001°06'0 0.0
2019-Jan-20 07:30N 50°49' W 001°06'0 0.0
2019-Jan-20 07:00N 50°49' W 001°06'0 0.0
2019-Jan-20 06:30N 50°49' W 001°06'2 3.2
2019-Jan-20 06:00N 50°47' W 001°06'612.2
2019-Jan-20 05:31N 50°42' W 001°01'714.4
2019-Jan-20 05:00N 50°36' W 001°07'814.8
2019-Jan-20 04:30N 50°30' W 001°14'714.1
2019-Jan-20 03:59N 50°25' W 001°22'714.0
2019-Jan-20 03:31N 50°20' W 001°29'714.0
2019-Jan-20 03:00N 50°14' W 001°34'714.0
2019-Jan-20 02:31N 50°08' W 001°40'914.4
2019-Jan-20 01:54N 50°00' W 001°47'614.0
2019-Jan-20 01:30N 49°56' W 001°53'713.8
2019-Jan-20 01:01N 49°50' W 001°59'713.0
2019-Jan-20 00:31N 49°44' W 002°03'611.5
2019-Jan-20 00:01N 49°39' W 002°06'713.6
2019-Jan-19 23:31N 49°33' W 002°11'714.9
2019-Jan-19 23:01N 49°29' W 002°21'612.7
2019-Jan-19 22:30N 49°26' W 002°30'2 3.9
2019-Jan-19 22:01N 49°27' W 002°32'0 0.0
2019-Jan-19 21:30N 49°27' W 002°32'0 0.0
2019-Jan-19 21:01N 49°27' W 002°32'5 9.4
2019-Jan-19 20:31N 49°23' W 002°28'713.9
2019-Jan-19 20:00N 49°17' W 002°23'815.6
2019-Jan-19 19:30N 49°10' W 002°17'7 2.6
2019-Jan-19 16:53N 49°11' W 002°07'510.8
2019-Jan-19 16:28N 49°10' W 002°14'613.5
2019-Jan-19 16:00N 49°15' W 002°19'612.3
2019-Jan-19 15:31N 49°21' W 002°18'510.9
2019-Jan-19 15:00N 49°26' W 002°14'612.1
2019-Jan-19 14:31N 49°31' W 002°09'713.1
2019-Jan-19 14:00N 49°37' W 002°05'918.3
2019-Jan-19 13:31N 49°46' W 002°00'918.1
2019-Jan-19 13:00N 49°53' W 001°53'918.3
2019-Jan-19 12:30N 50°01' W 001°45'917.4
2019-Jan-19 12:01N 50°09' W 001°40'2317.8
2019-Jan-19 10:45N 50°27' W 001°19'417.6
2019-Jan-19 10:31N 50°30' W 001°15'917.9
2019-Jan-19 10:01N 50°37' W 001°07'714.6
2019-Jan-19 09:31N 50°45' W 001°05'4 8.3
2019-Jan-19 09:00N 50°49' W 001°06'0 0.0
2019-Jan-19 08:30N 50°49' W 001°06'0 0.0
2019-Jan-19 08:00N 50°49' W 001°06'0 0.0
2019-Jan-19 07:30N 50°49' W 001°06'0 0.0
2019-Jan-19 07:00N 50°49' W 001°06'0 0.0
2019-Jan-19 06:30N 50°49' W 001°06'1 2.9
2019-Jan-19 06:01N 50°47' W 001°07'713.4
2019-Jan-19 05:31N 50°42' W 001°01'816.7
2019-Jan-19 05:01N 50°35' W 001°09'816.7
2019-Jan-19 04:30N 50°28' W 001°15'3116.6
2019-Jan-19 02:37N 50°05' W 001°49'216.7
2019-Jan-19 02:30N 50°04' W 001°50'816.2
2019-Jan-19 02:00N 49°57' W 001°57'816.4
2019-Jan-19 01:31N 49°49' W 002°01'815.1
2019-Jan-19 01:01N 49°42' W 002°04'714.1
2019-Jan-19 00:31N 49°35' W 002°09'815.4
2019-Jan-19 00:01N 49°30' W 002°18'815.0
2019-Jan-18 23:31N 49°26' W 002°27'3 6.8
2019-Jan-18 23:00N 49°27' W 002°32'0 0.0
2019-Jan-18 22:30N 49°27' W 002°32'0 0.0
2019-Jan-18 22:00N 49°27' W 002°32'0 0.0
2019-Jan-18 21:30N 49°27' W 002°32'2 4.4
2019-Jan-18 21:01N 49°26' W 002°29'917.2
2019-Jan-18 20:31N 49°18' W 002°24'917.6
2019-Jan-18 20:00N 49°10' W 002°17'2 0.7
2019-Jan-18 16:49N 49°10' W 002°13'413.1
2019-Jan-18 16:31N 49°12' W 002°19'713.5
2019-Jan-18 16:01N 49°19' W 002°19'714.0
2019-Jan-18 15:30N 49°25' W 002°15'714.3
2019-Jan-18 15:00N 49°32' W 002°10'714.1
2019-Jan-18 14:30N 49°38' W 002°06'814.2
2019-Jan-18 13:58N 49°45' W 002°01'715.7
2019-Jan-18 13:30N 49°51' W 001°55'816.8
2019-Jan-18 13:00N 49°58' W 001°47'816.8
2019-Jan-18 12:30N 50°06' W 001°43'917.0
2019-Jan-18 11:57N 50°14' W 001°35'1717.2
2019-Jan-18 10:58N 50°27' W 001°19'817.6
2019-Jan-18 10:31N 50°34' W 001°11'917.6
2019-Jan-18 10:01N 50°41' W 001°03'713.9
2019-Jan-18 09:30N 50°47' W 001°07'2 3.0
2019-Jan-18 09:00N 50°49' W 001°06'0 0.0
2019-Jan-18 08:30N 50°49' W 001°06'0 0.0
2019-Jan-18 08:00N 50°49' W 001°06'0 0.0
2019-Jan-18 07:30N 50°49' W 001°06'0 0.0
2019-Jan-18 07:00N 50°49' W 001°06'0 0.0
2019-Jan-18 06:30N 50°49' W 001°06'1 2.3
2019-Jan-18 06:00N 50°48' W 001°07'612.9
2019-Jan-18 05:30N 50°42' W 001°02'815.8
2019-Jan-18 05:00N 50°36' W 001°09'612.6
2019-Jan-18 04:30N 50°30' W 001°15'3213.2
2019-Jan-18 02:03N 50°05' W 001°45'116.7
2019-Jan-18 02:00N 50°04' W 001°46'816.6
2019-Jan-18 01:31N 49°57' W 001°53'816.4
2019-Jan-18 01:01N 49°50' W 001°59'815.7
2019-Jan-18 00:31N 49°42' W 002°04'815.1
2019-Jan-18 00:01N 49°36' W 002°09'815.6
2019-Jan-17 23:30N 49°30' W 002°17'815.3
2019-Jan-17 23:00N 49°26' W 002°27'3 6.8
2019-Jan-17 22:30N 49°27' W 002°32'0 0.0
2019-Jan-17 22:00N 49°27' W 002°32'0 0.0
2019-Jan-17 21:30N 49°27' W 002°32'0 0.0
2019-Jan-17 21:00N 49°27' W 002°32'4 7.2
2019-Jan-17 20:30N 49°24' W 002°28'815.9
2019-Jan-17 20:01N 49°17' W 002°23'816.1
2019-Jan-17 19:30N 49°10' W 002°17'7 2.5
2019-Jan-17 16:55N 49°11' W 002°07'410.2
2019-Jan-17 16:30N 49°10' W 002°13'713.6
2019-Jan-17 16:00N 49°14' W 002°21'715.0
2019-Jan-17 15:30N 49°21' W 002°18'815.4
2019-Jan-17 15:01N 49°28' W 002°13'815.4
2019-Jan-17 14:30N 49°35' W 002°09'815.1
2019-Jan-17 14:00N 49°42' W 002°04'815.3
2019-Jan-17 13:29N 49°49' W 001°58'816.6
2019-Jan-17 13:00N 49°56' W 001°52'917.3
2019-Jan-17 12:30N 50°04' W 001°46'917.6
2019-Jan-17 12:00N 50°11' W 001°38'2017.8
2019-Jan-17 10:54N 50°27' W 001°19'718.2
2019-Jan-17 10:30N 50°33' W 001°12'918.7
2019-Jan-17 10:01N 50°40' W 001°04'713.9
2019-Jan-17 09:31N 50°47' W 001°06'2 3.7
2019-Jan-17 09:01N 50°49' W 001°06'0 0.0
2019-Jan-17 08:31N 50°49' W 001°06'0 0.0
2019-Jan-17 08:01N 50°49' W 001°06'0 0.0
2019-Jan-17 07:31N 50°49' W 001°06'0 0.0
2019-Jan-17 07:01N 50°49' W 001°06'0 0.0
2019-Jan-17 06:30N 50°49' W 001°06'1 2.6
2019-Jan-17 06:01N 50°48' W 001°07'713.5
2019-Jan-17 05:31N 50°42' W 001°02'815.6
2019-Jan-17 05:01N 50°35' W 001°09'814.7
2019-Jan-17 04:30N 50°29' W 001°16'3015.0
2019-Jan-17 02:30N 50°05' W 001°43'917.4
2019-Jan-17 02:01N 49°58' W 001°50'917.6
2019-Jan-17 01:30N 49°50' W 001°58'917.9
2019-Jan-17 01:01N 49°42' W 002°04'816.8
2019-Jan-17 00:31N 49°34' W 002°09'917.1
2019-Jan-17 00:00N 49°27' W 002°14'816.5
2019-Jan-16 23:31N 49°19' W 002°20'714.6
2019-Jan-16 23:01N 49°12' W 002°19'4 1.2
2019-Jan-16 19:47N 49°10' W 002°14'415.7
2019-Jan-16 19:31N 49°12' W 002°19'917.2
2019-Jan-16 19:01N 49°20' W 002°25'816.7
2019-Jan-16 18:30N 49°27' W 002°31'0 1.0
2019-Jan-16 18:00N 49°27' W 002°32'0 0.0
2019-Jan-16 17:30N 49°27' W 002°32'0 0.2
2019-Jan-16 17:00N 49°27' W 002°32'5 9.7
2019-Jan-16 16:30N 49°27' W 002°24'816.2
2019-Jan-16 16:01N 49°32' W 002°14'714.5
2019-Jan-16 15:31N 49°38' W 002°07'612.9
2019-Jan-16 15:00N 49°44' W 002°04'612.9
2019-Jan-16 14:30N 49°50' W 001°59'713.4
2019-Jan-16 14:00N 49°55' W 001°54'713.7
2019-Jan-16 13:31N 50°01' W 001°48'714.1
2019-Jan-16 13:01N 50°07' W 001°42'2014.7
2019-Jan-16 11:40N 50°23' W 001°24'515.2
2019-Jan-16 11:19N 50°27' W 001°19'515.4
2019-Jan-16 11:01N 50°31' W 001°14'816.0
2019-Jan-16 10:30N 50°37' W 001°07'713.6
2019-Jan-16 10:00N 50°44' W 001°04'510.1
2019-Jan-16 09:30N 50°49' W 001°06'0 0.7
2019-Jan-16 09:00N 50°49' W 001°06'0 0.0
2019-Jan-16 08:30N 50°49' W 001°06'0 0.0
2019-Jan-16 08:00N 50°49' W 001°06'0 0.0
2019-Jan-16 07:30N 50°49' W 001°06'0 0.0
2019-Jan-16 07:00N 50°49' W 001°06'0 0.0
2019-Jan-16 06:30N 50°49' W 001°06'1 2.4
2019-Jan-16 06:01N 50°48' W 001°07'714.1
2019-Jan-16 05:31N 50°41' W 001°03'816.9
2019-Jan-16 05:00N 50°34' W 001°10'815.1
2019-Jan-16 04:30N 50°28' W 001°18'2713.4
2019-Jan-16 02:30N 50°05' W 001°37'714.1
2019-Jan-16 02:00N 49°59' W 001°44'714.2
2019-Jan-16 01:31N 49°54' W 001°51'714.2
2019-Jan-16 01:00N 49°48' W 001°58'815.6
2019-Jan-16 00:31N 49°42' W 002°04'918.5
2019-Jan-16 00:01N 49°33' W 002°10'917.6
2019-Jan-15 23:30N 49°25' W 002°15'917.1
2019-Jan-15 23:00N 49°17' W 002°20'714.4
2019-Jan-15 22:30N 49°10' W 002°17'6 2.2
2019-Jan-15 19:46N 49°10' W 002°07'414.6
2019-Jan-15 19:29N 49°10' W 002°14'815.7
2019-Jan-15 19:01N 49°15' W 002°22'816.9
2019-Jan-15 18:31N 49°23' W 002°27'510.7
2019-Jan-15 18:00N 49°27' W 002°32'0 0.0
2019-Jan-15 17:30N 49°27' W 002°32'0 0.0
2019-Jan-15 17:00N 49°27' W 002°32'1 2.2
2019-Jan-15 16:30N 49°27' W 002°30'612.1
2019-Jan-15 16:00N 49°29' W 002°21'816.0
2019-Jan-15 15:31N 49°34' W 002°11'815.2
2019-Jan-15 14:58N 49°41' W 002°05'613.8
2019-Jan-15 14:30N 49°47' W 002°01'714.2
2019-Jan-15 14:01N 49°53' W 001°55'714.9
2019-Jan-15 13:30N 49°60' W 001°51'713.7
2019-Jan-15 13:01N 50°04' W 001°43'815.1
2019-Jan-15 12:31N 50°10' W 001°36'1115.7
2019-Jan-15 11:47N 50°19' W 001°26'716.0
2019-Jan-15 11:21N 50°25' W 001°20'616.4
2019-Jan-15 11:00N 50°30' W 001°14'816.3
2019-Jan-15 10:30N 50°37' W 001°07'714.8
2019-Jan-15 10:01N 50°44' W 001°04'510.4
2019-Jan-15 09:31N 50°49' W 001°07'1 1.1
2019-Jan-15 09:00N 50°49' W 001°06'0 0.0
2019-Jan-15 08:30N 50°49' W 001°06'0 0.0
2019-Jan-15 08:00N 50°49' W 001°06'0 0.0
2019-Jan-15 07:30N 50°49' W 001°06'0 0.0
2019-Jan-15 07:00N 50°49' W 001°06'0 0.0
2019-Jan-15 06:30N 50°49' W 001°06'1 3.0
2019-Jan-15 06:00N 50°47' W 001°07'713.4
2019-Jan-15 05:31N 50°41' W 001°03'815.6
2019-Jan-15 05:00N 50°35' W 001°10'714.0
2019-Jan-15 04:30N 50°29' W 001°16'1012.2
2019-Jan-15 03:40N 50°21' W 001°25'211.2
2019-Jan-15 03:31N 50°19' W 001°26'611.3
2019-Jan-15 03:00N 50°14' W 001°31'611.2
2019-Jan-15 02:30N 50°09' W 001°35'611.2
2019-Jan-15 02:00N 50°04' W 001°39'611.8
2019-Jan-15 01:30N 49°59' W 001°43'713.5
2019-Jan-15 01:00N 49°54' W 001°51'612.6
2019-Jan-15 00:30N 49°49' W 001°56'714.3
2019-Jan-15 00:00N 49°43' W 002°03'714.1
2019-Jan-14 23:31N 49°37' W 002°07'815.6
2019-Jan-14 23:01N 49°30' W 002°12'917.2
2019-Jan-14 22:31N 49°22' W 002°17'816.2
2019-Jan-14 22:01N 49°14' W 002°21'713.9
2019-Jan-14 21:30N 49°10' W 002°12'4 6.5
2019-Jan-14 20:57N 49°11' W 002°07'0 0.0
2019-Jan-14 19:38N 49°11' W 002°07'0 0.2
2019-Jan-14 19:09N 49°11' W 002°07'0 2.9
2019-Jan-14 19:00N 49°10' W 002°07'815.1
2019-Jan-14 18:30N 49°11' W 002°19'917.9
2019-Jan-14 18:01N 49°19' W 002°25'917.3
2019-Jan-14 17:31N 49°27' W 002°30'1 2.1
2019-Jan-14 17:01N 49°27' W 002°32'0 0.0
2019-Jan-14 16:30N 49°27' W 002°32'0 0.5
2019-Jan-14 16:00N 49°27' W 002°31'510.8
2019-Jan-14 15:30N 49°28' W 002°23'917.0
2019-Jan-14 15:00N 49°33' W 002°13'816.1
2019-Jan-14 14:30N 49°40' W 002°06'714.9
2019-Jan-14 14:01N 49°46' W 002°00'714.7
2019-Jan-14 13:30N 49°52' W 001°54'815.3
2019-Jan-14 13:01N 49°59' W 001°48'815.3
2019-Jan-14 12:31N 50°05' W 001°40'815.8
2019-Jan-14 12:00N 50°11' W 001°33'1616.1
2019-Jan-14 11:01N 50°25' W 001°20'116.2
2019-Jan-14 10:59N 50°25' W 001°19'816.4
2019-Jan-14 10:30N 50°32' W 001°13'816.4
2019-Jan-14 10:00N 50°39' W 001°06'714.2
2019-Jan-14 09:30N 50°46' W 001°05'3 6.1
2019-Jan-14 09:00N 50°49' W 001°06'0 0.0
2019-Jan-14 08:30N 50°49' W 001°06'0 0.0
2019-Jan-14 08:00N 50°49' W 001°06'0 0.0
2019-Jan-14 07:31N 50°49' W 001°06'0 0.0
2019-Jan-14 07:00N 50°49' W 001°06'0 0.0
2019-Jan-14 06:30N 50°49' W 001°06'  

Dump ship's entire track history